Time;durP1;ratioP1;P1;durP2;ratioP2;P2;SDS_P1;SDS_P2;PMS_P1;PMS_P2;Temp;Humidity;BMP_temperature;BMP_pressure;BME280_temperature;BME280_humidity;BME280_pressure;Samples;Min_cycle;Max_cycle;Signal;HPM_P1;HPM_P2
2022/07/20 00:00:28;;;;;;;4.45;3.95;;;;;;;17.22;91.19;100132.02;1701167;82;21094;-72
2022/07/20 00:02:54;;;;;;;5.65;4.12;;;;;;;17.28;90.91;100137.39;1685667;83;21042;-74
2022/07/20 00:05:21;;;;;;;6.08;4.30;;;;;;;17.27;90.96;100138.44;1711203;83;21009;-71
2022/07/20 00:07:48;;;;;;;6.03;4.10;;;;;;;17.24;91.11;100132.11;1692846;83;21038;-72
2022/07/20 00:15:25;;;;;;;5.70;5.12;;;;;;;17.45;90.29;100124.95;1842299;76;28551;-73
2022/07/20 00:17:51;;;;;;;6.10;4.42;;;;;;;17.32;90.44;100128.94;1806897;77;21036;-74
2022/07/20 00:20:18;;;;;;;4.60;4.20;;;;;;;17.27;90.56;100126.35;1826167;78;21567;-73
2022/07/20 00:22:44;;;;;;;5.00;4.10;;;;;;;17.32;90.50;100126.25;1801071;78;20979;-73
2022/07/20 00:25:11;;;;;;;4.22;3.83;;;;;;;17.24;90.69;100121.38;1810797;78;21035;-73
2022/07/20 00:27:37;;;;;;;4.97;4.03;;;;;;;17.20;90.90;100121.99;1806680;77;21215;-73
2022/07/20 00:30:05;;;;;;;6.42;4.42;;;;;;;17.22;90.97;100118.06;1823349;77;21008;-73
2022/07/20 00:32:37;;;;;;;7.08;4.83;;;;;;;17.30;90.84;100118.40;1803811;77;21273;-75
2022/07/20 00:35:09;;;;;;;5.90;4.57;;;;;;;17.30;90.79;100117.05;1818672;78;20996;-73
2022/07/20 00:37:35;;;;;;;4.40;4.00;;;;;;;17.26;90.94;100109.09;1825370;78;21025;-74
2022/07/20 00:40:04;;;;;;;6.37;4.37;;;;;;;17.28;90.93;100109.72;1810049;77;21001;-73
2022/07/20 00:42:31;;;;;;;4.80;4.30;;;;;;;17.34;90.76;100115.61;1824615;78;21017;-72
2022/07/20 00:44:57;;;;;;;5.83;4.40;;;;;;;17.33;90.73;100112.63;1802428;78;21224;-74
2022/07/20 00:47:24;;;;;;;8.18;4.35;;;;;;;17.29;90.68;100108.70;1820825;77;21072;-73
2022/07/20 00:49:51;;;;;;;7.28;4.10;;;;;;;17.33;90.62;100111.29;1810699;77;21016;-75
2022/07/20 00:52:19;;;;;;;4.70;4.30;;;;;;;17.42;90.40;100110.57;1821645;78;21012;-74
2022/07/20 00:54:48;;;;;;;5.75;4.33;;;;;;;17.38;90.54;100109.33;1822386;77;21017;-74
2022/07/20 00:57:16;;;;;;;5.78;4.05;;;;;;;17.30;90.73;100114.38;1823807;78;21123;-75
2022/07/20 00:59:42;;;;;;;9.95;4.70;;;;;;;17.29;90.81;100114.07;1813816;77;21056;-73
2022/07/20 01:02:09;;;;;;;4.67;4.10;;;;;;;17.34;90.75;100114.27;1816289;78;20981;-75
2022/07/20 01:04:37;;;;;;;5.22;4.45;;;;;;;17.27;90.91;100108.08;1826004;78;21049;-75
2022/07/20 01:07:03;;;;;;;5.40;4.83;;;;;;;17.20;91.18;100109.91;1807300;78;20933;-72
2022/07/20 01:09:32;;;;;;;5.10;4.42;;;;;;;17.19;91.32;100114.47;1819340;77;20986;-74
2022/07/20 01:11:59;;;;;;;4.80;4.30;;;;;;;17.21;91.45;100111.55;1827010;78;21050;-76
2022/07/20 01:14:25;;;;;;;7.67;5.28;;;;;;;17.12;91.78;100110.92;1800892;78;21052;-75
2022/07/20 01:16:53;;;;;;;7.17;5.10;;;;;;;16.99;92.21;100111.69;1824978;77;21037;-75
2022/07/20 01:19:19;;;;;;;4.42;4.03;;;;;;;16.95;92.40;100110.97;1819604;78;21107;-74
2022/07/20 01:21:46;;;;;;;5.12;4.62;;;;;;;16.96;92.61;100108.58;1826101;78;21179;-76
2022/07/20 01:24:13;;;;;;;6.58;5.62;;;;;;;16.93;92.95;100103.63;1821021;78;21076;-74
2022/07/20 01:26:40;;;;;;;5.58;4.87;;;;;;;16.85;93.38;100110.83;1819837;78;21044;-76
2022/07/20 01:29:08;;;;;;;8.15;6.05;;;;;;;16.85;93.63;100108.14;1817714;78;20979;-72
2022/07/20 01:31:35;;;;;;;9.38;8.08;;;;;;;16.91;93.58;100111.87;1824244;78;22108;-74
2022/07/20 01:34:01;;;;;;;7.17;6.33;;;;;;;16.89;93.70;100116.62;1824274;78;21293;-74
2022/07/20 01:36:28;;;;;;;5.60;4.70;;;;;;;16.82;93.88;100115.23;1819103;77;21025;-75
2022/07/20 01:38:54;;;;;;;4.87;4.42;;;;;;;16.81;93.93;100116.25;1819890;77;21017;-75
2022/07/20 01:41:22;;;;;;;10.32;6.37;;;;;;;16.89;93.73;100116.62;1823343;78;21037;-73
2022/07/20 01:43:50;;;;;;;6.28;4.78;;;;;;;16.90;93.84;100118.26;1814198;78;21016;-75
2022/07/20 01:46:17;;;;;;;6.37;5.75;;;;;;;16.84;93.95;100120.41;1825244;78;21072;-75
2022/07/20 01:48:43;;;;;;;6.00;5.40;;;;;;;16.83;94.01;100116.91;1819552;78;21071;-73
2022/07/20 01:51:11;;;;;;;6.95;4.70;;;;;;;16.90;93.79;100108.37;1823154;78;21009;-74
2022/07/20 01:53:37;;;;;;;6.67;5.97;;;;;;;16.88;93.87;100112.27;1815719;78;21128;-73
2022/07/20 01:56:03;;;;;;;8.18;5.03;;;;;;;16.81;94.00;100110.06;1814618;77;21079;-75
2022/07/20 01:58:30;;;;;;;6.00;5.30;;;;;;;16.82;94.02;100115.23;1802634;78;21169;-75
2022/07/20 02:00:58;;;;;;;5.92;5.30;;;;;;;16.87;93.75;100122.18;1814861;78;21072;-75
2022/07/20 02:03:24;;;;;;;7.60;6.17;;;;;;;16.83;93.81;100118.77;1807401;78;21018;-73
2022/07/20 02:05:51;;;;;;;6.35;4.90;;;;;;;16.75;94.11;100118.39;1824184;78;20966;-71
2022/07/20 02:08:17;;;;;;;5.37;4.85;;;;;;;16.77;94.17;100119.54;1823179;78;21099;-74
2022/07/20 02:10:44;;;;;;;7.40;5.10;;;;;;;16.83;93.94;100118.25;1813566;77;21181;-75
2022/07/20 02:13:12;;;;;;;6.00;5.17;;;;;;;16.82;93.95;100117.09;1821377;77;21100;-74
2022/07/20 02:18:24;;;;;;;7.28;5.25;;;;;;;16.74;94.11;100118.06;1809676;77;21027;-74
2022/07/20 02:20:50;;;;;;;10.75;5.80;;;;;;;16.84;93.86;100123.09;1812907;79;21029;-73
2022/07/20 02:23:17;;;;;;;6.97;5.45;;;;;;;16.78;93.88;100116.63;1814853;78;21124;-74
2022/07/20 02:25:43;;;;;;;6.15;5.30;;;;;;;16.68;94.20;100122.89;1809328;79;21524;-74
2022/07/20 02:28:10;;;;;;;5.37;4.83;;;;;;;16.66;94.24;100121.73;1805350;78;20998;-71
2022/07/20 02:30:36;;;;;;;8.33;5.33;;;;;;;16.71;94.11;100116.62;1814382;79;21072;-71
2022/07/20 02:33:05;;;;;;;7.90;4.80;;;;;;;16.70;94.24;100125.67;1814033;78;21021;-71
2022/07/20 02:35:32;;;;;;;5.58;4.83;;;;;;;16.67;94.35;100125.27;1814220;79;21545;-72
2022/07/20 02:37:58;;;;;;;8.05;4.87;;;;;;;16.68;94.24;100129.07;1809810;77;21055;-73
2022/07/20 02:40:26;;;;;;;7.50;5.20;;;;;;;16.71;94.12;100125.19;1801878;79;21037;-74
2022/07/20 02:42:52;;;;;;;6.10;5.53;;;;;;;16.68;94.29;100126.91;1810097;78;21364;-75
2022/07/20 02:45:19;;;;;;;7.78;4.87;;;;;;;16.63;94.45;100127.52;1814499;79;21025;-74
2022/07/20 02:47:47;;;;;;;8.63;5.00;;;;;;;16.66;94.42;100130.31;1811978;77;21606;-75
2022/07/20 02:50:13;;;;;;;5.53;4.90;;;;;;;16.75;94.21;100121.59;1821997;77;20997;-79
2022/07/20 02:52:41;;;;;;;6.17;4.90;;;;;;;16.75;94.15;100121.59;1807708;77;21619;-74
2022/07/20 02:55:08;;;;;;;6.95;5.05;;;;;;;16.71;94.04;100126.52;1792628;79;21024;-74
2022/07/20 02:57:35;;;;;;;8.08;5.40;;;;;;;16.70;93.96;100124.33;1790649;77;21018;-75
2022/07/20 03:00:07;;;;;;;5.65;5.15;;;;;;;16.72;93.82;100122.80;1811304;77;21127;-75
2022/07/20 03:02:34;;;;;;;6.62;5.35;;;;;;;16.67;93.96;100122.59;1806252;79;21096;-72
2022/07/20 03:05:00;;;;;;;5.37;4.87;;;;;;;16.57;94.28;100120.23;1814507;79;21005;-73
2022/07/20 03:07:28;;;;;;;8.75;4.90;;;;;;;16.58;94.31;100115.73;1808052;79;21025;-73
2022/07/20 03:09:55;;;;;;;7.97;4.95;;;;;;;16.59;94.22;100119.55;1805868;78;20989;-72
2022/07/20 03:12:23;;;;;;;6.62;4.95;;;;;;;16.52;94.32;100125.39;1803542;78;21599;-73
2022/07/20 03:14:50;;;;;;;5.28;4.62;;;;;;;16.46;94.52;100122.98;1810927;77;21114;-71
2022/07/20 03:17:17;;;;;;;13.53;5.33;;;;;;;16.50;94.38;100118.87;1813161;78;20992;-75
2022/07/20 03:19:46;;;;;;;6.80;5.53;;;;;;;16.57;94.10;100116.22;1814952;78;21026;-73
2022/07/20 03:22:12;;;;;;;7.20;5.33;;;;;;;16.55;94.11;100123.63;1825727;78;21044;-72
2022/07/20 03:24:39;;;;;;;7.70;4.95;;;;;;;16.51;94.13;100124.57;1821521;78;21131;-74
2022/07/20 03:27:05;;;;;;;6.92;4.58;;;;;;;16.58;93.92;100129.13;1802926;78;21084;-74
2022/07/20 03:29:33;;;;;;;5.22;4.62;;;;;;;16.67;93.46;100127.44;1824059;78;20970;-76
2022/07/20 03:32:00;;;;;;;8.58;5.22;;;;;;;16.73;93.12;100137.03;1795809;78;21046;-75
2022/07/20 03:34:26;;;;;;;6.60;5.20;;;;;;;16.70;93.05;100135.06;1804919;78;21049;-74
2022/07/20 03:36:53;;;;;;;6.45;5.40;;;;;;;16.75;92.79;100130.98;1825734;78;21874;-73
2022/07/20 03:39:21;;;;;;;6.92;5.60;;;;;;;16.86;92.27;100135.79;1806879;78;21020;-75
2022/07/20 03:41:48;;;;;;;7.87;5.30;;;;;;;16.84;92.04;100131.14;1804625;78;21049;-74
2022/07/20 03:44:14;;;;;;;6.03;5.35;;;;;;;16.81;92.07;100132.87;1817108;78;21049;-75
2022/07/20 03:46:41;;;;;;;6.40;5.40;;;;;;;16.85;92.00;100134.15;1821682;78;21037;-75
2022/07/20 03:49:08;;;;;;;6.87;4.80;;;;;;;16.94;91.58;100134.30;1817714;77;21240;-75
2022/07/20 03:51:38;;;;;;;7.20;5.15;;;;;;;16.95;91.50;100124.38;1821251;78;21023;-76
2022/07/20 03:54:06;;;;;;;7.05;5.35;;;;;;;16.94;91.48;100122.72;1802778;78;21094;-74
2022/07/20 03:56:33;;;;;;;5.70;4.95;;;;;;;17.01;91.23;100118.20;1814543;78;20983;-75
2022/07/20 03:58:59;;;;;;;5.80;4.92;;;;;;;17.11;90.67;100107.91;1824275;78;21694;-75
2022/07/20 04:01:27;;;;;;;5.37;4.87;;;;;;;17.14;90.31;100105.36;1825847;78;21025;-75
2022/07/20 04:03:54;;;;;;;8.43;5.12;;;;;;;17.16;90.24;100112.17;1825832;78;21029;-75
2022/07/20 04:06:20;;;;;;;5.62;4.30;;;;;;;17.22;89.88;100107.33;1825436;78;21104;-75
2022/07/20 04:08:48;;;;;;;4.87;4.37;;;;;;;17.35;89.28;100108.41;1820568;78;21053;-75
2022/07/20 04:11:14;;;;;;;5.55;4.50;;;;;;;17.38;89.03;100112.02;1819829;78;21040;-74
2022/07/20 04:13:41;;;;;;;7.42;4.50;;;;;;;17.40;88.77;100108.61;1809062;77;21080;-79
2022/07/20 04:16:07;;;;;;;5.95;4.30;;;;;;;17.46;88.30;100107.29;1814054;77;21088;-81
2022/07/20 04:18:33;;;;;;;6.12;4.97;;;;;;;17.58;87.65;100106.69;1801981;79;21018;-82
2022/07/20 04:21:00;;;;;;;5.75;4.83;;;;;;;17.60;87.55;100104.63;1814727;77;21057;-84
2022/07/20 04:23:27;;;;;;;5.85;4.80;;;;;;;17.59;87.45;100102.43;1814110;78;21013;-80
2022/07/20 04:25:56;;;;;;;5.08;4.30;;;;;;;17.68;87.19;100102.55;1800931;78;21126;-80
2022/07/20 04:28:23;;;;;;;4.90;4.42;;;;;;;17.81;86.62;100098.20;1808122;78;21009;-83
2022/07/20 04:30:49;;;;;;;5.60;5.03;;;;;;;17.87;86.56;100094.74;1811697;78;21093;-79
2022/07/20 04:33:18;;;;;;;5.15;4.35;;;;;;;17.96;86.15;100083.25;1793227;78;21011;-79
2022/07/20 04:35:46;;;;;;;5.65;4.58;;;;;;;18.13;85.57;100082.30;1791926;78;21099;-80
2022/07/20 04:38:17;;;;;;;4.72;4.33;;;;;;;18.31;84.64;100084.33;1809501;77;21586;-79
2022/07/20 04:40:41;;;;;;;5.80;4.33;;;;;;;18.40;84.26;100079.03;1789513;78;22191;-80
2022/07/20 04:43:07;;;;;;;7.47;4.40;;;;;;;18.44;84.02;100070.84;1767821;79;21033;-79
2022/07/20 04:45:34;;;;;;;4.47;4.08;;;;;;;18.51;83.51;100076.22;1744001;80;21204;-81
2022/07/20 04:48:00;;;;;;;5.00;4.37;;;;;;;18.66;82.84;100071.41;1742843;82;21031;-80
2022/07/20 04:50:27;;;;;;;6.17;4.20;;;;;;;18.80;82.01;100070.86;1753464;81;21274;-81
2022/07/20 04:52:54;;;;;;;5.25;4.17;;;;;;;18.84;81.76;100072.90;1732188;81;21073;-81
2022/07/20 04:55:20;;;;;;;5.65;4.60;;;;;;;18.88;81.33;100071.14;1754775;81;21512;-79
2022/07/20 04:57:47;;;;;;;5.72;3.80;;;;;;;18.90;81.44;100074.44;1753744;80;21042;-82
2022/07/20 05:00:15;;;;;;;5.25;4.47;;;;;;;19.03;81.21;100071.16;1758452;81;21014;-80
2022/07/20 05:02:42;;;;;;;5.08;4.40;;;;;;;19.19;81.23;100073.03;1750593;81;21786;-81
2022/07/20 05:05:08;;;;;;;6.08;4.37;;;;;;;19.30;80.64;100064.27;1714934;81;21058;-80
2022/07/20 05:07:36;;;;;;;6.00;4.40;;;;;;;19.36;79.83;100060.69;1751497;81;21122;-79
2022/07/20 05:10:03;;;;;;;4.72;4.22;;;;;;;19.38;79.62;100054.56;1752459;80;20954;-81
2022/07/20 05:12:30;;;;;;;5.65;4.12;;;;;;;19.50;79.01;100056.03;1759248;76;20967;-82
2022/07/20 05:14:57;;;;;;;4.25;3.85;;;;;;;19.56;78.88;100054.33;1759710;80;21126;-81
2022/07/20 05:17:23;;;;;;;5.83;4.37;;;;;;;19.58;78.38;100047.66;1745839;80;21569;-78
2022/07/20 05:19:52;;;;;;;4.65;4.25;;;;;;;19.61;78.63;100049.12;1759733;79;21151;-78
2022/07/20 05:22:20;;;;;;;4.97;3.67;;;;;;;19.65;78.35;100043.05;1752906;80;21032;-77
2022/07/20 05:24:46;;;;;;;5.12;4.47;;;;;;;19.77;77.92;100039.14;1760482;80;21050;-80
2022/07/20 05:27:12;;;;;;;6.35;4.25;;;;;;;19.83;77.20;100033.39;1764357;81;21329;-79
2022/07/20 05:29:39;;;;;;;4.42;3.90;;;;;;;19.84;77.68;100033.17;1757937;79;21511;-80
2022/07/20 05:32:07;;;;;;;5.47;4.60;;;;;;;19.86;77.53;100031.61;1758829;81;21640;-78
2022/07/20 05:34:34;;;;;;;5.60;4.00;;;;;;;19.89;77.57;100029.80;1757470;80;21009;-80
2022/07/20 05:37:01;;;;;;;6.58;3.75;;;;;;;19.98;77.23;100024.96;1766015;80;21050;-81
2022/07/20 05:39:27;;;;;;;4.60;3.58;;;;;;;20.09;76.33;100027.42;1762587;80;21049;-78
2022/07/20 05:41:54;;;;;;;5.33;4.20;;;;;;;20.09;76.48;100027.42;1764514;80;21502;-78
2022/07/20 05:44:20;;;;;;;5.45;4.45;;;;;;;20.06;75.82;100024.66;1758088;80;21092;-78
2022/07/20 05:46:48;;;;;;;5.08;4.20;;;;;;;20.00;76.56;100025.03;1750936;80;21072;-79
2022/07/20 05:49:14;;;;;;;6.00;4.15;;;;;;;19.99;76.25;100024.75;1755821;81;21068;-78
2022/07/20 05:51:41;;;;;;;5.55;3.60;;;;;;;20.10;76.29;100012.91;1762846;81;21201;-77
2022/07/20 05:54:08;;;;;;;6.25;5.65;;;;;;;20.19;76.06;100012.92;1762775;81;21031;-80
2022/07/20 05:56:34;;;;;;;4.42;3.72;;;;;;;20.23;75.86;100011.41;1757976;80;21084;-79
2022/07/20 05:59:01;;;;;;;4.92;4.00;;;;;;;20.25;75.82;100012.02;1758233;81;21070;-79
2022/07/20 06:01:27;;;;;;;4.30;3.90;;;;;;;20.27;75.40;100010.45;1767224;79;20998;-80
2022/07/20 06:03:54;;;;;;;5.08;4.03;;;;;;;20.26;75.22;100010.13;1760043;80;21552;-85
2022/07/20 06:06:21;;;;;;;5.22;4.37;;;;;;;20.27;74.99;100003.70;1760109;79;21003;-82
2022/07/20 06:08:49;;;;;;;4.72;3.65;;;;;;;20.40;74.87;99999.50;1763978;80;21091;-82
2022/07/20 06:11:16;;;;;;;5.17;3.80;;;;;;;20.47;75.00;99998.87;1757424;79;21019;-79
2022/07/20 06:13:42;;;;;;;5.37;3.92;;;;;;;20.50;74.80;99994.91;1758127;80;21018;-74
2022/07/20 06:16:08;;;;;;;4.35;3.67;;;;;;;20.54;74.90;99990.17;1756255;81;21232;-74
2022/07/20 06:18:36;;;;;;;5.65;4.20;;;;;;;20.57;73.82;99992.43;1763267;81;21030;-76
2022/07/20 06:21:04;;;;;;;4.25;3.55;;;;;;;20.57;73.22;99981.63;1771497;80;21121;-76
2022/07/20 06:23:31;;;;;;;5.45;3.85;;;;;;;20.57;73.49;99976.23;1753191;80;21018;-73
2022/07/20 06:25:57;;;;;;;4.10;3.70;;;;;;;20.68;73.52;99973.83;1747170;80;21076;-78
2022/07/20 06:28:25;;;;;;;5.97;4.50;;;;;;;20.79;72.37;99980.63;1760284;80;21246;-78
2022/07/20 06:30:52;;;;;;;4.28;3.87;;;;;;;20.83;72.96;99974.24;1755437;79;21357;-78
2022/07/20 06:33:21;;;;;;;8.03;4.75;;;;;;;20.85;72.95;99971.31;1755881;81;21065;-78
2022/07/20 06:35:47;;;;;;;8.00;3.92;;;;;;;20.86;72.69;99977.84;1758627;80;21078;-76
2022/07/20 06:38:14;;;;;;;5.90;4.40;;;;;;;20.88;72.08;99976.23;1765269;80;21102;-78
2022/07/20 06:40:40;;;;;;;6.30;4.20;;;;;;;20.90;72.21;99972.78;1747760;80;21106;-78
2022/07/20 06:43:19;;;;;;;5.10;4.05;;;;;;;20.92;71.91;99976.07;1763445;81;21019;-78
2022/07/20 06:45:56;;;;;;;4.67;4.12;;;;;;;20.98;71.79;99967.89;1742027;80;21049;-78
2022/07/20 06:48:24;;;;;;;5.42;4.42;;;;;;;21.20;71.46;99968.69;1751467;80;21098;-80
2022/07/20 06:50:51;;;;;;;6.62;5.55;;;;;;;21.27;71.10;99972.66;1756124;81;20998;-79
2022/07/20 06:53:17;;;;;;;7.03;4.30;;;;;;;21.33;71.38;99964.96;1765044;80;21188;-81
2022/07/20 06:55:45;;;;;;;7.47;4.58;;;;;;;21.39;70.80;99962.13;1751544;81;21011;-79
2022/07/20 06:58:11;;;;;;;6.28;4.10;;;;;;;21.45;70.94;99953.65;1751675;81;21058;-80
2022/07/20 07:00:39;;;;;;;6.97;4.70;;;;;;;21.49;69.87;99952.66;1763946;81;21066;-81
2022/07/20 07:03:05;;;;;;;7.17;4.45;;;;;;;21.56;69.96;99952.02;1751557;80;21042;-78
2022/07/20 07:05:33;;;;;;;8.95;4.70;;;;;;;21.63;70.33;99954.05;1751202;80;21154;-80
2022/07/20 07:08:02;;;;;;;6.28;4.47;;;;;;;21.73;69.84;99954.81;1755925;81;21031;-77
2022/07/20 07:10:30;;;;;;;7.08;4.62;;;;;;;21.87;68.95;99951.35;1755796;80;21698;-79
2022/07/20 07:12:56;;;;;;;6.05;4.33;;;;;;;21.95;68.49;99949.09;1743064;81;21089;-80
2022/07/20 07:15:25;;;;;;;12.65;4.80;;;;;;;21.97;68.06;99940.73;1756225;80;20993;-75
2022/07/20 07:17:52;;;;;;;5.17;4.28;;;;;;;21.98;67.57;99937.80;1778528;80;21185;-77
2022/07/20 07:20:18;;;;;;;5.20;4.70;;;;;;;21.97;67.84;99939.39;1811517;78;21091;-79
2022/07/20 07:22:45;;;;;;;5.60;4.62;;;;;;;21.96;68.12;99922.34;1807153;77;22209;-79
2022/07/20 07:25:11;;;;;;;7.03;4.55;;;;;;;21.95;68.47;99920.69;1815604;78;21048;-76
2022/07/20 07:27:38;;;;;;;6.20;4.87;;;;;;;21.96;68.16;99913.39;1813761;77;21029;-76
2022/07/20 07:30:06;;;;;;;5.60;4.92;;;;;;;22.00;67.84;99913.23;1814328;78;21087;-81
2022/07/20 07:32:35;;;;;;;9.90;5.00;;;;;;;22.12;68.03;99910.48;1742207;82;21077;-80
2022/07/20 07:35:03;;;;;;;7.47;4.72;;;;;;;22.24;67.96;99902.33;1814449;78;21474;-83
2022/07/20 07:37:32;;;;;;;5.70;4.37;;;;;;;22.37;67.83;99904.78;1809922;77;21083;-84
2022/07/20 07:39:58;;;;;;;6.00;4.80;;;;;;;22.47;66.88;99904.14;1809615;78;21104;-83
2022/07/20 07:42:25;;;;;;;7.28;5.12;;;;;;;22.56;66.33;99898.61;1819855;78;21077;-83
2022/07/20 07:44:52;;;;;;;5.42;4.55;;;;;;;22.66;66.16;99896.64;1818262;77;21038;-83
2022/07/20 07:47:18;;;;;;;5.30;4.80;;;;;;;22.76;65.52;99892.20;1816332;78;21092;-82
2022/07/20 07:49:45;;;;;;;5.28;4.40;;;;;;;22.82;65.13;99888.23;1806889;78;21540;-82
2022/07/20 07:52:12;;;;;;;5.00;4.50;;;;;;;22.86;65.25;99887.49;1814356;78;21041;-83
2022/07/20 07:54:38;;;;;;;6.37;4.47;;;;;;;22.90;64.10;99887.83;1815612;77;21110;-84
2022/07/20 07:57:05;;;;;;;6.28;4.97;;;;;;;22.92;63.79;99883.80;1815366;77;21012;-79
2022/07/20 07:59:31;;;;;;;4.65;4.25;;;;;;;22.92;63.44;99885.15;1716089;82;21005;-81
2022/07/20 08:01:58;;;;;;;5.17;4.67;;;;;;;22.94;64.52;99881.66;1747226;80;21053;-80
2022/07/20 08:04:25;;;;;;;5.22;4.72;;;;;;;23.06;64.25;99880.78;1805844;78;21075;-78
2022/07/20 08:06:52;;;;;;;5.85;5.20;;;;;;;23.15;64.37;99875.25;1813074;78;21025;-79
2022/07/20 08:09:20;;;;;;;6.30;4.53;;;;;;;23.25;64.73;99878.09;1732768;81;20990;-75
2022/07/20 08:11:47;;;;;;;5.20;4.70;;;;;;;23.34;64.10;99875.80;1800210;78;21108;-76
2022/07/20 08:14:13;;;;;;;5.42;4.85;;;;;;;23.40;63.87;99868.02;1817198;77;21053;-80
2022/07/20 08:16:42;;;;;;;6.37;5.05;;;;;;;23.61;63.64;99872.37;1794039;78;21085;-78
2022/07/20 08:19:10;;;;;;;5.37;4.87;;;;;;;23.71;61.96;99866.53;1823007;77;21759;-77
2022/07/20 08:21:38;;;;;;;6.35;5.20;;;;;;;23.73;61.08;99865.75;1814268;78;21090;-76
2022/07/20 08:24:05;;;;;;;5.62;5.08;;;;;;;23.73;61.64;99871.17;1816400;78;21009;-80
2022/07/20 08:26:32;;;;;;;5.25;4.75;;;;;;;23.71;61.15;99861.11;1812233;77;20990;-81
2022/07/20 08:29:01;;;;;;;5.87;4.35;;;;;;;23.65;61.64;99857.24;1831748;77;21521;-73
2022/07/20 08:31:28;;;;;;;7.62;5.40;;;;;;;23.61;62.26;99847.43;1820667;77;21206;-75
2022/07/20 08:33:54;;;;;;;5.40;4.40;;;;;;;23.62;62.55;99842.81;1808609;78;21055;-73
2022/07/20 08:36:24;;;;;;;5.62;4.78;;;;;;;23.63;60.79;99852.61;1809297;77;21036;-84
2022/07/20 08:38:51;;;;;;;5.25;4.75;;;;;;;23.62;60.93;99836.85;1811275;78;20978;-79
2022/07/20 08:41:19;;;;;;;6.50;5.08;;;;;;;23.65;62.03;99835.00;1814702;77;20990;-83
2022/07/20 08:43:46;;;;;;;5.83;5.33;;;;;;;23.78;61.56;99823.00;1824202;77;21048;-77
2022/07/20 08:46:13;;;;;;;5.45;4.95;;;;;;;23.95;61.83;99802.55;1820053;77;21502;-76
2022/07/20 08:48:42;;;;;;;6.80;4.78;;;;;;;24.14;61.56;99800.30;1831555;77;21005;-77
2022/07/20 08:51:09;;;;;;;5.20;4.62;;;;;;;24.28;61.21;99798.83;1823901;78;21104;-81
2022/07/20 08:53:35;;;;;;;5.55;4.65;;;;;;;24.35;61.28;99797.25;1816955;77;21022;-79
2022/07/20 08:56:02;;;;;;;4.87;4.45;;;;;;;24.45;61.20;99800.59;1823796;78;21127;-78
2022/07/20 08:58:31;;;;;;;5.85;4.50;;;;;;;24.57;60.01;99792.30;1813485;78;21010;-82
2022/07/20 09:00:58;;;;;;;5.67;4.67;;;;;;;24.68;59.20;99787.23;1816567;77;21490;-79
2022/07/20 09:03:24;;;;;;;6.12;4.55;;;;;;;24.81;60.20;99790.05;1823705;77;20985;-78
2022/07/20 09:06:06;;;;;;;7.72;4.85;;;;;;;24.96;58.84;99781.19;1817854;78;20993;-77
2022/07/20 09:08:34;;;;;;;7.00;5.00;;;;;;;25.06;58.83;99760.31;1818216;78;21100;-78
2022/07/20 09:11:02;;;;;;;4.92;4.42;;;;;;;25.12;58.45;99767.95;1815988;77;21548;-76
2022/07/20 09:13:32;;;;;;;6.97;4.60;;;;;;;25.19;57.67;99762.27;1817222;77;21034;-76
2022/07/20 09:15:59;;;;;;;4.60;4.20;;;;;;;25.28;58.22;99745.77;1818991;78;21011;-74
2022/07/20 09:18:28;;;;;;;7.42;4.20;;;;;;;25.36;58.16;99742.52;1805574;77;21008;-77
2022/07/20 09:21:04;;;;;;;8.28;4.80;;;;;;;25.44;57.96;99748.00;1734841;80;21065;-76
2022/07/20 09:23:47;;;;;;;4.90;4.47;;;;;;;25.59;57.55;99752.13;1749365;80;20980;-82
2022/07/20 09:26:15;;;;;;;5.50;4.47;;;;;;;25.78;57.11;99747.02;1744938;80;21069;-77
2022/07/20 09:28:50;;;;;;;6.87;4.65;;;;;;;25.88;55.96;99744.33;1751923;81;20999;-77
2022/07/20 09:31:20;;;;;;;4.53;4.05;;;;;;;25.87;55.41;99748.68;1740469;82;21004;-77
2022/07/20 09:34:13;;;;;;;4.65;4.25;;;;;;;25.87;55.47;99735.88;1755759;80;21242;-77
2022/07/20 09:36:45;;;;;;;6.28;4.55;;;;;;;25.88;55.57;99728.53;1759739;80;21050;-80
2022/07/20 09:39:15;;;;;;;5.10;4.25;;;;;;;25.92;55.83;99717.41;1748098;79;21061;-78
2022/07/20 09:41:45;;;;;;;5.62;4.80;;;;;;;26.05;56.44;99723.68;1754837;81;21054;-76
2022/07/20 09:44:27;;;;;;;7.53;5.40;;;;;;;26.21;56.01;99711.44;1755218;80;21042;-75
2022/07/20 09:46:54;;;;;;;5.30;4.80;;;;;;;26.41;55.56;99718.25;1756288;80;22706;-75
2022/07/20 09:49:21;;;;;;;4.42;4.03;;;;;;;26.47;55.20;99714.98;1749972;79;21520;-75
2022/07/20 09:51:57;;;;;;;5.00;4.25;;;;;;;26.44;55.46;99704.09;1686288;82;21066;-75
2022/07/20 09:54:23;;;;;;;5.28;4.35;;;;;;;26.49;55.57;99701.90;1731367;80;21529;-76
2022/07/20 09:56:51;;;;;;;4.80;4.40;;;;;;;26.56;55.69;99692.06;1752818;79;21498;-74
2022/07/20 09:59:20;;;;;;;6.47;5.17;;;;;;;26.70;55.93;99686.36;1758192;80;21310;-74
2022/07/20 10:01:50;;;;;;;7.17;4.75;;;;;;;26.93;55.31;99671.30;1754110;79;21030;-77
2022/07/20 10:04:19;;;;;;;5.90;4.33;;;;;;;27.28;53.88;99659.19;1758257;79;21106;-75
2022/07/20 10:06:47;;;;;;;5.20;4.70;;;;;;;27.59;52.42;99653.00;1765207;79;21031;-76
2022/07/20 10:09:16;;;;;;;7.75;4.60;;;;;;;27.77;52.87;99654.23;1743104;80;21062;-74
2022/07/20 10:11:45;;;;;;;5.17;4.62;;;;;;;27.94;53.11;99647.84;1742130;80;21076;-75
2022/07/20 10:14:12;;;;;;;5.47;4.83;;;;;;;28.03;51.81;99651.59;1740971;79;21550;-75
2022/07/20 10:16:49;;;;;;;5.90;4.62;;;;;;;27.99;51.65;99642.35;1741468;79;21068;-75
2022/07/20 10:19:16;;;;;;;5.03;4.53;;;;;;;27.90;51.58;99641.33;1726874;81;21695;-77
2022/07/20 10:21:52;;;;;;;7.70;4.80;;;;;;;27.99;51.59;99630.59;1755056;80;21019;-78
2022/07/20 10:24:25;;;;;;;5.03;4.53;;;;;;;28.06;51.35;99643.37;1760938;80;21172;-78
2022/07/20 10:27:15;;;;;;;5.35;4.33;;;;;;;28.23;51.20;99621.10;1762617;80;21040;-80
2022/07/20 10:29:48;;;;;;;6.37;4.70;;;;;;;28.60;50.19;99618.28;1761863;81;21073;-79
2022/07/20 10:32:28;;;;;;;5.33;4.30;;;;;;;28.87;50.16;99612.77;1745510;81;21591;-74
2022/07/20 10:35:01;;;;;;;5.85;5.12;;;;;;;29.10;48.61;99597.42;1758263;80;21599;-77
2022/07/20 10:37:37;;;;;;;4.60;4.20;;;;;;;29.26;49.16;99603.52;1753811;81;25674;-76
2022/07/20 10:40:14;;;;;;;5.62;4.90;;;;;;;29.29;47.77;99597.47;1754024;81;21060;-75
2022/07/20 10:42:50;;;;;;;9.35;4.97;;;;;;;29.23;48.49;99585.78;1740662;80;21576;-75
2022/07/20 10:45:27;;;;;;;6.83;4.50;;;;;;;29.36;48.77;99578.73;1759899;81;21105;-76
2022/07/20 10:48:15;;;;;;;6.87;4.67;;;;;;;29.64;47.75;99574.20;1746251;81;21144;-74
2022/07/20 10:50:45;;;;;;;4.78;4.40;;;;;;;29.91;47.51;99561.73;1756832;80;21066;-74
2022/07/20 10:53:17;;;;;;;6.50;4.85;;;;;;;30.10;46.87;99563.84;1751860;80;21576;-75
2022/07/20 10:55:55;;;;;;;;;;;;;;;30.25;46.70;99563.28;1745441;81;21070;-76
2022/07/20 10:58:30;;;;;;;5.12;4.58;;;;;;;30.30;46.45;99557.71;1737040;81;20614;-76
2022/07/20 11:01:03;;;;;;;5.12;4.25;;;;;;;30.18;46.97;99550.80;1755881;80;21022;-77
2022/07/20 11:03:40;;;;;;;5.42;4.60;;;;;;;30.10;47.23;99561.66;1760303;80;21094;-79
2022/07/20 11:06:24;;;;;;;5.00;4.50;;;;;;;30.09;46.14;99550.44;1750982;81;21106;-80
2022/07/20 11:11:40;;;;;;;4.25;3.85;;;;;;;29.45;47.28;99547.42;1785310;79;21031;-86
2022/07/20 11:14:15;;;;;;;5.33;4.35;;;;;;;29.36;47.62;99550.01;1788495;78;21006;-86
2022/07/20 11:16:48;;;;;;;7.00;4.37;;;;;;;29.46;47.91;99528.51;1786629;78;21133;-83
2022/07/20 11:19:17;;;;;;;4.80;4.40;;;;;;;29.94;47.98;99520.03;1674878;81;21530;-79
2022/07/20 11:21:48;;;;;;;5.65;4.47;;;;;;;30.45;46.04;99514.96;1790934;78;21065;-80
2022/07/20 11:24:27;;;;;;;4.60;4.10;;;;;;;30.57;45.35;99511.70;1782807;78;21036;-79
2022/07/20 11:26:56;;;;;;;6.03;4.47;;;;;;;30.50;45.56;99505.27;1746572;80;21040;-77
2022/07/20 11:29:24;;;;;;;5.00;4.40;;;;;;;30.46;45.90;99498.79;1729834;81;21604;-75
2022/07/20 11:31:52;;;;;;;4.72;4.28;;;;;;;30.57;45.51;99485.66;1804459;77;21033;-78
2022/07/20 11:34:21;;;;;;;5.75;4.45;;;;;;;30.90;45.59;99467.67;1768738;80;21088;-78
2022/07/20 11:36:49;;;;;;;5.00;4.10;;;;;;;31.36;44.71;99467.92;1796273;78;21013;-84
2022/07/20 11:39:17;;;;;;;5.10;4.58;;;;;;;31.65;44.34;99463.36;1785686;78;21088;-76
2022/07/20 11:41:45;;;;;;;5.10;4.60;;;;;;;31.90;43.71;99468.71;1788828;78;21265;-75
2022/07/20 11:44:23;;;;;;;6.30;4.25;;;;;;;31.81;43.36;99465.12;1785838;78;21108;-75